createdAt,value
2023-02-02T00:00:18.121Z,2.00
2023-02-02T00:02:52.849Z,1.67
2023-02-02T00:05:23.916Z,2.15
2023-02-02T00:07:57.687Z,2.30
2023-02-02T00:10:26.399Z,1.90
2023-02-02T00:12:58.809Z,2.50
2023-02-02T00:15:26.946Z,2.03
2023-02-02T00:17:54.972Z,2.03
2023-02-02T00:20:24.098Z,2.03
2023-02-02T00:22:51.121Z,1.88
2023-02-02T00:25:18.059Z,1.50
2023-02-02T00:27:45.659Z,2.35
2023-02-02T00:30:14.628Z,2.05
2023-02-02T00:32:43.500Z,2.00
2023-02-02T00:35:13.977Z,1.95
2023-02-02T00:37:42.910Z,1.85
2023-02-02T00:40:13.449Z,2.40
2023-02-02T00:42:44.114Z,1.92
2023-02-02T00:45:18.673Z,2.00
2023-02-02T00:47:50.411Z,2.47
2023-02-02T00:50:22.099Z,1.83
2023-02-02T00:52:51.874Z,2.10
2023-02-02T00:55:25.604Z,1.50
2023-02-02T00:57:55.997Z,1.63
2023-02-02T01:00:27.505Z,1.45
2023-02-02T01:03:00.241Z,1.40
2023-02-02T01:05:28.171Z,1.42
2023-02-02T01:07:58.140Z,1.50
2023-02-02T01:10:25.819Z,1.77
2023-02-02T01:12:56.610Z,1.25
2023-02-02T01:15:29.281Z,1.50
2023-02-02T01:18:00.365Z,1.73
2023-02-02T01:20:34.079Z,1.58
2023-02-02T01:23:05.265Z,1.27
2023-02-02T01:25:40.171Z,1.45
2023-02-02T01:28:14.639Z,1.05
2023-02-02T01:30:43.349Z,1.38
2023-02-02T01:33:11.772Z,1.33
2023-02-02T01:35:47.494Z,1.40
2023-02-02T01:38:17.304Z,1.27
2023-02-02T01:40:53.603Z,1.25
2023-02-02T01:43:50.505Z,1.45
2023-02-02T01:46:22.570Z,1.23
2023-02-02T01:49:08.015Z,1.40
2023-02-02T01:51:53.751Z,1.00
2023-02-02T01:54:35.482Z,1.20
2023-02-02T01:57:52.082Z,1.40
2023-02-02T02:00:25.344Z,0.88
2023-02-02T02:02:55.497Z,1.33
2023-02-02T02:05:31.754Z,1.05
2023-02-02T02:08:27.997Z,1.02
2023-02-02T02:11:00.301Z,1.92
2023-02-02T02:14:02.938Z,1.48
2023-02-02T02:16:58.492Z,1.33
2023-02-02T02:20:18.063Z,1.17
2023-02-02T02:23:44.409Z,1.13
2023-02-02T02:27:19.466Z,1.17
2023-02-02T02:33:35.454Z,1.27
2023-02-02T02:37:15.254Z,0.90
2023-02-02T02:40:03.056Z,1.05
2023-02-02T02:42:42.777Z,0.93
2023-02-02T02:45:28.349Z,1.08
2023-02-02T02:48:07.203Z,1.13
2023-02-02T02:50:37.702Z,0.90
2023-02-02T02:53:32.811Z,1.58
2023-02-02T02:56:42.249Z,0.90
2023-02-02T02:59:42.800Z,0.85
2023-02-02T03:02:24.618Z,0.90
2023-02-02T03:05:04.290Z,0.80
2023-02-02T03:07:38.534Z,1.00
2023-02-02T03:10:07.942Z,1.05
2023-02-02T03:12:43.183Z,1.48
2023-02-02T03:15:10.801Z,0.80
2023-02-02T03:17:38.386Z,0.80
2023-02-02T03:20:08.556Z,1.10
2023-02-02T03:22:35.899Z,0.80
2023-02-02T03:25:03.317Z,0.73
2023-02-02T03:27:30.819Z,0.80
2023-02-02T03:30:07.964Z,0.63
2023-02-02T03:32:43.469Z,0.52
2023-02-02T03:35:22.319Z,0.70
2023-02-02T03:38:00.569Z,0.80
2023-02-02T03:40:32.207Z,1.30
2023-02-02T03:43:01.451Z,0.93
2023-02-02T03:45:35.942Z,0.80
2023-02-02T03:48:17.937Z,0.85
2023-02-02T03:50:51.622Z,0.98
2023-02-02T03:53:25.266Z,0.70
2023-02-02T03:58:27.597Z,0.88
2023-02-02T04:01:00.384Z,0.70
2023-02-02T04:03:29.297Z,0.80
2023-02-02T04:05:57.141Z,0.88
2023-02-02T04:08:25.008Z,0.90
2023-02-02T04:10:54.502Z,0.70
2023-02-02T04:13:30.566Z,1.02
2023-02-02T04:16:08.600Z,0.87
2023-02-02T04:18:44.514Z,0.60
2023-02-02T04:27:20.881Z,0.90
2023-02-02T04:29:49.375Z,0.90
2023-02-02T04:32:18.529Z,0.75
2023-02-02T04:34:46.400Z,0.90
2023-02-02T04:37:13.640Z,0.75
2023-02-02T04:39:40.914Z,1.05
2023-02-02T04:42:07.949Z,0.80
2023-02-02T04:44:35.280Z,0.75
2023-02-02T04:47:02.339Z,0.90
2023-02-02T04:49:29.362Z,0.95
2023-02-02T04:51:56.301Z,0.60
2023-02-02T04:54:23.372Z,0.70
2023-02-02T04:56:50.409Z,0.63
2023-02-02T04:59:17.449Z,1.00
2023-02-02T05:01:44.527Z,0.80
2023-02-02T05:04:12.485Z,0.82
2023-02-02T05:06:39.633Z,1.10
2023-02-02T05:09:07.658Z,1.17
2023-02-02T05:11:36.104Z,0.98
2023-02-02T05:14:04.945Z,1.00
2023-02-02T05:16:33.671Z,1.08
2023-02-02T05:19:05.308Z,1.30
2023-02-02T05:21:33.761Z,1.20
2023-02-02T05:24:03.425Z,1.00
2023-02-02T05:26:31.377Z,1.48
2023-02-02T05:28:58.861Z,1.27
2023-02-02T05:31:26.240Z,1.50
2023-02-02T05:33:54.964Z,1.60
2023-02-02T05:36:22.311Z,1.48
2023-02-02T05:38:49.298Z,0.90
2023-02-02T05:41:16.315Z,0.88
2023-02-02T05:43:43.250Z,1.05
2023-02-02T05:46:10.681Z,0.90
2023-02-02T05:48:40.535Z,1.10
2023-02-02T05:51:15.305Z,1.30
2023-02-02T05:53:44.967Z,1.05
2023-02-02T05:56:13.214Z,1.20
2023-02-02T05:58:40.135Z,0.93
2023-02-02T06:01:07.320Z,1.08
2023-02-02T06:03:34.774Z,1.40
2023-02-02T06:06:02.035Z,1.02
2023-02-02T06:08:29.248Z,2.47
2023-02-02T06:10:56.425Z,1.60
2023-02-02T06:13:23.373Z,1.65
2023-02-02T06:15:50.392Z,1.48
2023-02-02T06:18:17.441Z,1.02
2023-02-02T06:20:44.324Z,1.40
2023-02-02T06:23:11.150Z,1.70
2023-02-02T06:25:38.078Z,1.52
2023-02-02T06:28:04.961Z,1.52
2023-02-02T06:30:31.924Z,1.20
2023-02-02T06:33:00.048Z,1.25
2023-02-02T06:35:27.349Z,1.90
2023-02-02T06:37:55.388Z,1.50
2023-02-02T06:40:22.221Z,0.75
2023-02-02T06:42:55.039Z,0.90
2023-02-02T06:45:21.911Z,1.05
2023-02-02T06:47:48.735Z,1.20
2023-02-02T06:50:18.706Z,1.20
2023-02-02T06:52:52.428Z,1.10
2023-02-02T06:55:25.609Z,1.17
2023-02-02T06:58:03.338Z,1.05
2023-02-02T07:00:30.767Z,0.82
2023-02-02T07:02:57.812Z,0.88
2023-02-02T07:05:26.998Z,1.10
2023-02-02T07:07:54.860Z,1.42
2023-02-02T07:11:09.410Z,1.10
2023-02-02T07:13:08.560Z,1.00
2023-02-02T07:15:41.387Z,1.00
2023-02-02T07:18:10.601Z,1.50
2023-02-02T07:20:37.490Z,1.30
2023-02-02T07:23:04.584Z,1.25
2023-02-02T07:25:32.803Z,1.30
2023-02-02T07:28:01.995Z,1.48
2023-02-02T07:30:30.005Z,1.65
2023-02-02T07:32:57.415Z,1.42
2023-02-02T07:35:24.871Z,1.40
2023-02-02T07:37:56.007Z,1.70
2023-02-02T07:40:22.807Z,1.75
2023-02-02T07:42:49.932Z,1.23
2023-02-02T07:45:27.600Z,1.40
2023-02-02T07:47:59.099Z,1.85
2023-02-02T07:50:27.347Z,1.65
2023-02-02T07:52:54.506Z,2.08
2023-02-02T07:55:21.383Z,1.90
2023-02-02T07:57:48.401Z,1.38
2023-02-02T08:00:15.515Z,1.75
2023-02-02T08:02:42.461Z,2.22
2023-02-02T08:05:10.030Z,1.88
2023-02-02T08:07:36.935Z,1.30
2023-02-02T08:10:03.922Z,2.00
2023-02-02T08:12:33.368Z,1.67
2023-02-02T08:15:00.303Z,1.25
2023-02-02T08:17:27.186Z,1.67
2023-02-02T08:19:54.191Z,1.63
2023-02-02T08:22:21.078Z,1.67
2023-02-02T08:24:48.120Z,1.67
2023-02-02T08:27:18.260Z,1.42
2023-02-02T08:29:46.279Z,1.48
2023-02-02T08:32:13.146Z,1.40
2023-02-02T08:34:40.974Z,1.77
2023-02-02T08:37:07.932Z,1.23
2023-02-02T08:39:35.069Z,0.93
2023-02-02T08:42:02.104Z,2.45
2023-02-02T08:44:45.590Z,2.55
2023-02-02T08:47:15.973Z,2.10
2023-02-02T08:49:42.894Z,1.67
2023-02-02T08:52:09.728Z,2.03
2023-02-02T08:54:36.493Z,1.40
2023-02-02T08:57:03.421Z,1.05
2023-02-02T08:59:30.251Z,1.25
2023-02-02T09:01:57.241Z,1.65
2023-02-02T09:04:24.103Z,1.50
2023-02-02T09:06:50.959Z,1.55
2023-02-02T09:09:17.969Z,1.42
2023-02-02T09:11:44.850Z,1.50
2023-02-02T09:14:14.096Z,1.73
2023-02-02T09:16:43.403Z,1.90
2023-02-02T09:19:11.753Z,3.05
2023-02-02T09:21:38.673Z,2.20
2023-02-02T09:24:10.690Z,1.17
2023-02-02T09:26:38.834Z,1.77
2023-02-02T09:29:06.951Z,1.42
2023-02-02T09:31:36.779Z,1.58
2023-02-02T09:34:11.855Z,1.65
2023-02-02T09:36:40.159Z,2.20
2023-02-02T09:39:07.677Z,1.63
2023-02-02T09:41:40.852Z,1.77
2023-02-02T09:44:21.271Z,1.83
2023-02-02T09:47:18.224Z,1.80
2023-02-02T09:50:02.301Z,1.90
2023-02-02T09:52:42.368Z,1.52
2023-02-02T09:55:22.753Z,1.48
2023-02-02T09:57:54.942Z,1.10
2023-02-02T10:00:31.530Z,1.20
2023-02-02T10:03:11.051Z,1.35
2023-02-02T10:05:56.981Z,1.15
2023-02-02T10:08:35.433Z,1.20
2023-02-02T10:11:21.016Z,1.83
2023-02-02T10:13:50.253Z,1.38
2023-02-02T10:16:21.235Z,1.00
2023-02-02T10:19:03.149Z,1.48
2023-02-02T10:21:52.131Z,1.65
2023-02-02T10:24:25.341Z,1.77
2023-02-02T10:26:56.136Z,1.73
2023-02-02T10:29:25.882Z,1.58
2023-02-02T10:32:41.296Z,1.75
2023-02-02T10:35:20.344Z,1.30
2023-02-02T10:38:06.926Z,1.58
2023-02-02T10:40:52.534Z,1.45
2023-02-02T10:43:47.660Z,2.50
2023-02-02T10:46:25.195Z,1.95
2023-02-02T10:49:12.017Z,1.52
2023-02-02T10:51:41.182Z,1.45
2023-02-02T10:54:56.024Z,1.50
2023-02-02T10:57:31.224Z,1.20
2023-02-02T11:00:13.325Z,1.33
2023-02-02T11:02:42.799Z,1.10
2023-02-02T11:05:42.665Z,1.50
2023-02-02T11:08:14.815Z,1.27
2023-02-02T11:10:44.149Z,1.38
2023-02-02T11:13:23.345Z,1.83
2023-02-02T11:15:50.284Z,1.30
2023-02-02T11:18:28.234Z,3.03
2023-02-02T11:20:55.963Z,3.78
2023-02-02T11:23:27.377Z,3.20
2023-02-02T11:26:00.407Z,2.42
2023-02-02T11:28:31.144Z,2.00
2023-02-02T11:30:58.948Z,1.77
2023-02-02T11:33:34.450Z,2.22
2023-02-02T11:36:05.726Z,2.20
2023-02-02T11:38:33.040Z,2.05
2023-02-02T11:41:09.206Z,1.88
2023-02-02T11:43:53.881Z,1.85
2023-02-02T11:46:32.877Z,2.13
2023-02-02T11:49:03.962Z,2.03
2023-02-02T11:51:32.089Z,2.60
2023-02-02T11:54:26.023Z,2.00
2023-02-02T11:56:55.818Z,1.92
2023-02-02T12:00:07.971Z,1.80
2023-02-02T12:02:34.825Z,1.60
2023-02-02T12:05:10.731Z,2.00
2023-02-02T12:07:37.880Z,1.63
2023-02-02T12:10:23.581Z,1.70
2023-02-02T12:13:15.059Z,1.63
2023-02-02T12:15:52.245Z,1.40
2023-02-02T12:18:38.338Z,1.70
2023-02-02T12:21:07.741Z,1.92
2023-02-02T12:24:00.529Z,1.65
2023-02-02T12:26:41.266Z,1.60
2023-02-02T12:29:34.147Z,1.55
2023-02-02T12:32:24.933Z,1.83
2023-02-02T12:35:29.552Z,1.85
2023-02-02T12:38:33.771Z,1.73
2023-02-02T12:41:33.576Z,1.27
2023-02-02T12:44:10.359Z,1.60
2023-02-02T12:46:55.852Z,1.30
2023-02-02T12:49:31.644Z,1.38
2023-02-02T12:52:21.055Z,1.40
2023-02-02T12:55:06.567Z,2.10
2023-02-02T12:58:13.459Z,2.83
2023-02-02T13:00:43.334Z,1.83
2023-02-02T13:03:25.352Z,3.10
2023-02-02T13:06:02.461Z,4.05
2023-02-02T13:09:06.401Z,4.70
2023-02-02T13:11:42.028Z,2.25
2023-02-02T13:14:16.250Z,4.82
2023-02-02T13:16:53.352Z,2.45
2023-02-02T13:19:32.466Z,2.80
2023-02-02T13:22:02.168Z,2.17
2023-02-02T13:24:31.908Z,1.70
2023-02-02T13:27:02.943Z,2.25
2023-02-02T13:29:47.761Z,1.80
2023-02-02T13:32:21.205Z,2.08
2023-02-02T13:35:05.340Z,1.88
2023-02-02T13:37:42.677Z,1.27
2023-02-02T13:40:32.740Z,2.25
2023-02-02T13:43:11.782Z,2.30
2023-02-02T13:45:46.455Z,2.13
2023-02-02T13:48:25.697Z,1.58
2023-02-02T13:51:24.517Z,1.98
2023-02-02T13:54:10.725Z,1.73
2023-02-02T13:56:47.810Z,1.48
2023-02-02T13:59:34.155Z,1.75
2023-02-02T14:02:02.038Z,1.65
2023-02-02T14:04:31.414Z,1.60
2023-02-02T14:07:07.200Z,1.20
2023-02-02T14:09:37.497Z,1.60
2023-02-02T14:12:07.625Z,1.83
2023-02-02T14:14:37.773Z,1.92
2023-02-02T14:17:19.394Z,1.80
2023-02-02T14:19:58.028Z,1.75
2023-02-02T14:22:45.156Z,1.75
2023-02-02T14:25:33.465Z,1.92
2023-02-02T14:28:03.058Z,2.10
2023-02-02T14:30:35.574Z,2.42
2023-02-02T14:33:20.757Z,1.98
2023-02-02T14:35:47.584Z,1.98
2023-02-02T14:38:39.478Z,1.92
2023-02-02T14:41:52.993Z,1.85
2023-02-02T14:44:19.942Z,3.17
2023-02-02T14:46:49.429Z,1.55
2023-02-02T14:49:20.148Z,2.60
2023-02-02T14:51:55.234Z,1.90
2023-02-02T14:54:37.130Z,1.67
2023-02-02T14:57:25.328Z,1.40
2023-02-02T14:59:55.273Z,1.38
2023-02-02T15:02:30.743Z,1.23
2023-02-02T15:05:38.951Z,1.30
2023-02-02T15:08:24.750Z,1.60
2023-02-02T15:10:58.935Z,1.58
2023-02-02T15:13:38.663Z,1.60
2023-02-02T15:16:14.510Z,1.48
2023-02-02T15:18:45.465Z,1.52
2023-02-02T15:21:22.060Z,1.55
2023-02-02T15:23:49.087Z,1.67
2023-02-02T15:26:37.108Z,2.05
2023-02-02T15:29:13.584Z,1.40
2023-02-02T15:31:45.656Z,1.52
2023-02-02T15:34:40.802Z,2.40
2023-02-02T15:37:12.778Z,1.80
2023-02-02T15:39:50.606Z,2.47
2023-02-02T15:42:41.094Z,2.45
2023-02-02T15:45:27.887Z,1.45
2023-02-02T15:47:59.128Z,1.60
2023-02-02T15:50:27.054Z,1.40
2023-02-02T15:53:02.547Z,1.63
2023-02-02T15:55:42.748Z,1.77
2023-02-02T15:58:44.874Z,1.40
2023-02-02T16:01:24.438Z,1.45
2023-02-02T16:04:24.995Z,1.50
2023-02-02T16:06:52.297Z,1.55
2023-02-02T16:09:32.814Z,1.50
2023-02-02T16:12:08.933Z,1.45
2023-02-02T16:14:50.550Z,2.15
2023-02-02T16:17:33.016Z,1.70
2023-02-02T16:20:04.598Z,1.65
2023-02-02T16:22:32.114Z,1.67
2023-02-02T16:25:03.067Z,2.13
2023-02-02T16:27:33.395Z,1.85
2023-02-02T16:30:05.641Z,1.52
2023-02-02T16:32:35.673Z,1.48
2023-02-02T16:35:06.281Z,1.30
2023-02-02T16:37:36.537Z,1.17
2023-02-02T16:40:27.198Z,1.75
2023-02-02T16:43:15.887Z,1.60
2023-02-02T16:45:51.638Z,1.75
2023-02-02T16:48:27.341Z,1.85
2023-02-02T16:51:15.581Z,1.40
2023-02-02T16:53:56.936Z,2.00
2023-02-02T16:56:29.399Z,1.55
2023-02-02T16:58:59.049Z,1.25
2023-02-02T17:01:33.611Z,1.48
2023-02-02T17:04:01.028Z,1.25
2023-02-02T17:06:38.789Z,1.98
2023-02-02T17:09:41.048Z,2.13
2023-02-02T17:12:32.031Z,2.72
2023-02-02T17:15:34.949Z,1.40
2023-02-02T17:18:04.347Z,1.60
2023-02-02T17:20:32.550Z,1.30
2023-02-02T17:23:03.158Z,1.40
2023-02-02T17:25:40.791Z,1.00
2023-02-02T17:28:13.281Z,0.95
2023-02-02T17:30:50.016Z,1.30
2023-02-02T17:33:18.462Z,1.08
2023-02-02T17:35:55.585Z,1.23
2023-02-02T17:38:24.582Z,1.55
2023-02-02T17:40:52.896Z,1.10
2023-02-02T17:43:22.083Z,1.00
2023-02-02T17:45:49.510Z,1.38
2023-02-02T17:48:16.748Z,1.35
2023-02-02T17:50:46.946Z,1.17
2023-02-02T17:53:24.548Z,1.75
2023-02-02T17:55:52.357Z,1.55
2023-02-02T17:58:19.583Z,1.50
2023-02-02T18:01:00.679Z,1.20
2023-02-02T18:03:36.337Z,1.50
2023-02-02T18:06:17.360Z,1.15
2023-02-02T18:08:56.152Z,2.03
2023-02-02T18:11:23.323Z,1.83
2023-02-02T18:13:53.445Z,1.40
2023-02-02T18:16:21.485Z,1.20
2023-02-02T18:18:48.647Z,1.17
2023-02-02T18:21:15.853Z,1.02
2023-02-02T18:23:42.894Z,0.70
2023-02-02T18:26:26.614Z,0.70
2023-02-02T18:28:54.841Z,0.90
2023-02-02T18:31:24.018Z,0.70
2023-02-02T18:33:51.382Z,1.10
2023-02-02T18:36:23.899Z,1.58
2023-02-02T18:38:51.503Z,1.13
2023-02-02T18:41:52.191Z,1.90
2023-02-02T18:44:24.383Z,1.20
2023-02-02T18:46:51.880Z,1.23
2023-02-02T18:49:19.332Z,1.02
2023-02-02T18:51:47.916Z,1.00
2023-02-02T18:54:20.107Z,0.90
2023-02-02T18:56:53.093Z,2.00
2023-02-02T18:59:20.108Z,1.55
2023-02-02T19:01:55.121Z,1.40
2023-02-02T19:04:22.132Z,1.10
2023-02-02T19:07:07.782Z,1.00
2023-02-02T19:09:37.013Z,1.20
2023-02-02T19:12:14.174Z,2.00
2023-02-02T19:14:43.487Z,2.17
2023-02-02T19:17:24.647Z,2.20
2023-02-02T19:19:51.844Z,1.25
2023-02-02T19:22:23.947Z,1.25
2023-02-02T19:24:50.967Z,1.50
2023-02-02T19:27:26.654Z,0.93
2023-02-02T19:30:03.954Z,1.00
2023-02-02T19:32:33.685Z,0.90
2023-02-02T19:35:04.630Z,1.27
2023-02-02T19:37:33.303Z,0.93
2023-02-02T19:40:09.438Z,1.05
2023-02-02T19:42:49.622Z,0.75
2023-02-02T19:45:37.663Z,1.00
2023-02-02T19:48:25.608Z,1.00
2023-02-02T19:50:53.776Z,0.70
2023-02-02T19:53:30.471Z,0.70
2023-02-02T19:55:57.514Z,0.60
2023-02-02T19:58:28.232Z,1.00
2023-02-02T20:00:58.221Z,0.80
2023-02-02T20:03:42.962Z,0.77
2023-02-02T20:06:19.427Z,1.00
2023-02-02T20:08:46.495Z,0.80
2023-02-02T20:11:42.073Z,1.00
2023-02-02T20:14:18.817Z,0.75
2023-02-02T20:16:51.159Z,0.90
2023-02-02T20:19:24.295Z,1.02
2023-02-02T20:21:52.833Z,0.93
2023-02-02T20:24:24.784Z,0.70
2023-02-02T20:26:55.041Z,1.30
2023-02-02T20:29:26.540Z,1.08
2023-02-02T20:31:56.446Z,1.38
2023-02-02T20:34:32.925Z,1.30
2023-02-02T20:37:12.143Z,1.88
2023-02-02T20:39:52.079Z,2.60
2023-02-02T20:42:19.044Z,3.58
2023-02-02T20:44:45.998Z,1.48
2023-02-02T20:47:16.253Z,0.85
2023-02-02T20:49:43.885Z,1.55
2023-02-02T20:52:18.196Z,1.55
2023-02-02T20:54:45.046Z,0.70
2023-02-02T20:57:11.959Z,1.00
2023-02-02T20:59:41.344Z,0.90
2023-02-02T21:02:08.656Z,0.90
2023-02-02T21:04:35.508Z,0.75
2023-02-02T21:07:02.343Z,1.00
2023-02-02T21:09:29.159Z,1.55
2023-02-02T21:11:56.076Z,1.00
2023-02-02T21:14:23.011Z,0.90
2023-02-02T21:16:49.940Z,0.70
2023-02-02T21:19:16.790Z,1.00
2023-02-02T21:21:47.998Z,1.00
2023-02-02T21:24:15.068Z,1.10
2023-02-02T21:26:42.317Z,1.10
2023-02-02T21:29:11.542Z,2.95
2023-02-02T21:31:40.033Z,2.92
2023-02-02T21:34:16.998Z,3.03
2023-02-02T21:36:46.323Z,3.45
2023-02-02T21:39:22.156Z,4.25
2023-02-02T21:41:51.729Z,1.88
2023-02-02T21:44:21.439Z,1.30
2023-02-02T21:46:51.343Z,1.50
2023-02-02T21:49:27.573Z,0.60
2023-02-02T21:52:00.022Z,0.95
2023-02-02T21:54:30.608Z,0.63
2023-02-02T21:57:06.204Z,0.73
2023-02-02T21:59:40.711Z,0.85
2023-02-02T22:02:38.935Z,1.10
2023-02-02T22:05:25.403Z,1.15
2023-02-02T22:07:53.476Z,1.15
2023-02-02T22:10:38.222Z,1.33
2023-02-02T22:13:20.119Z,0.98
2023-02-02T22:15:49.119Z,1.10
2023-02-02T22:18:24.504Z,1.30
2023-02-02T22:20:53.081Z,1.23
2023-02-02T22:23:22.498Z,1.05
2023-02-02T22:25:53.201Z,1.00
2023-02-02T22:28:26.145Z,1.10
2023-02-02T22:33:23.595Z,0.98
2023-02-02T22:35:50.771Z,0.90
2023-02-02T22:38:20.000Z,1.10
2023-02-02T22:40:47.991Z,0.98
2023-02-02T22:43:16.596Z,0.95
2023-02-02T22:45:44.614Z,1.00
2023-02-02T22:48:12.934Z,0.75
2023-02-02T22:50:40.634Z,0.65
2023-02-02T22:53:07.478Z,0.90
2023-02-02T22:55:34.872Z,0.90
2023-02-02T22:58:01.684Z,0.63
2023-02-02T23:00:30.792Z,0.80
2023-02-02T23:02:57.731Z,0.82
2023-02-02T23:05:25.983Z,1.10
2023-02-02T23:07:53.842Z,0.85
2023-02-02T23:10:26.680Z,0.63
2023-02-02T23:15:22.671Z,0.55
2023-02-02T23:17:50.102Z,0.70
2023-02-02T23:20:17.622Z,1.00
2023-02-02T23:22:44.848Z,0.75
2023-02-02T23:25:12.964Z,0.60
2023-02-02T23:27:40.207Z,1.02
2023-02-02T23:30:08.938Z,0.60
2023-02-02T23:32:35.935Z,0.90
2023-02-02T23:35:03.414Z,0.80
2023-02-02T23:37:30.442Z,0.80
2023-02-02T23:39:57.378Z,0.70
2023-02-02T23:42:25.665Z,0.50
2023-02-02T23:44:52.978Z,1.15
2023-02-02T23:47:20.067Z,0.90
2023-02-02T23:49:47.194Z,0.93
2023-02-02T23:52:14.776Z,0.45
2023-02-02T23:54:42.209Z,0.80
2023-02-02T23:57:09.675Z,0.77
2023-02-02T23:59:36.649Z,0.50
